sensor_id;sensor_type;location;lat;lon;timestamp;pressure;altitude;pressure_sealevel;temperature;humidity
34185;BME280;20454;48.100;11.776;2023-04-25T00:01:22;94812.09;;;6.65;93.25
34185;BME280;20454;48.100;11.776;2023-04-25T00:03:48;94806.88;;;6.64;93.28
34185;BME280;20454;48.100;11.776;2023-04-25T00:06:14;94809.31;;;6.65;93.45
34185;BME280;20454;48.100;11.776;2023-04-25T00:08:40;94802.66;;;6.66;93.48
34185;BME280;20454;48.100;11.776;2023-04-25T00:11:05;94803.34;;;6.72;93.35
34185;BME280;20454;48.100;11.776;2023-04-25T00:13:31;94802.19;;;6.73;93.50
34185;BME280;20454;48.100;11.776;2023-04-25T00:15:57;94797.56;;;6.82;93.71
34185;BME280;20454;48.100;11.776;2023-04-25T00:18:23;94788.44;;;6.81;93.66
34185;BME280;20454;48.100;11.776;2023-04-25T00:20:49;94789.13;;;6.87;93.23
34185;BME280;20454;48.100;11.776;2023-04-25T00:23:15;94784.91;;;6.89;93.83
34185;BME280;20454;48.100;11.776;2023-04-25T00:25:49;94791.75;;;6.92;93.57
34185;BME280;20454;48.100;11.776;2023-04-25T00:28:15;94786.41;;;6.95;93.02
34185;BME280;20454;48.100;11.776;2023-04-25T00:30:41;94800.22;;;6.95;92.37
34185;BME280;20454;48.100;11.776;2023-04-25T00:33:07;94809.34;;;6.96;92.53
34185;BME280;20454;48.100;11.776;2023-04-25T00:35:33;94803.50;;;6.97;92.64
34185;BME280;20454;48.100;11.776;2023-04-25T00:37:59;94804.00;;;6.99;92.35
34185;BME280;20454;48.100;11.776;2023-04-25T00:40:25;94795.72;;;6.99;92.58
34185;BME280;20454;48.100;11.776;2023-04-25T00:42:52;94804.50;;;7.01;92.60
34185;BME280;20454;48.100;11.776;2023-04-25T00:45:18;94807.13;;;7.06;92.23
34185;BME280;20454;48.100;11.776;2023-04-25T00:47:44;94807.94;;;7.07;92.21
34185;BME280;20454;48.100;11.776;2023-04-25T00:50:10;94793.63;;;7.05;91.91
34185;BME280;20454;48.100;11.776;2023-04-25T00:52:37;94795.72;;;7.08;92.12
34185;BME280;20454;48.100;11.776;2023-04-25T00:55:05;94802.47;;;7.15;92.20
34185;BME280;20454;48.100;11.776;2023-04-25T00:57:30;94801.63;;;7.15;92.16
34185;BME280;20454;48.100;11.776;2023-04-25T00:59:56;94783.59;;;7.17;92.06
34185;BME280;20454;48.100;11.776;2023-04-25T01:02:22;94795.97;;;7.20;92.04
34185;BME280;20454;48.100;11.776;2023-04-25T01:04:48;94796.97;;;7.24;92.15
34185;BME280;20454;48.100;11.776;2023-04-25T01:07:14;94790.31;;;7.25;91.57
34185;BME280;20454;48.100;11.776;2023-04-25T01:09:41;94778.75;;;7.23;91.49
34185;BME280;20454;48.100;11.776;2023-04-25T01:12:07;94780.56;;;7.27;91.32
34185;BME280;20454;48.100;11.776;2023-04-25T01:14:32;94784.47;;;7.26;92.18
34185;BME280;20454;48.100;11.776;2023-04-25T01:16:58;94776.28;;;7.21;92.43
34185;BME280;20454;48.100;11.776;2023-04-25T01:19:24;94785.22;;;7.18;92.37
34185;BME280;20454;48.100;11.776;2023-04-25T01:21:50;94783.94;;;7.16;92.52
34185;BME280;20454;48.100;11.776;2023-04-25T01:24:16;94785.03;;;7.15;92.61
34185;BME280;20454;48.100;11.776;2023-04-25T01:26:42;94782.59;;;7.13;92.75
34185;BME280;20454;48.100;11.776;2023-04-25T01:29:17;94788.44;;;7.12;93.21
34185;BME280;20454;48.100;11.776;2023-04-25T01:31:43;94780.97;;;7.12;93.29
34185;BME280;20454;48.100;11.776;2023-04-25T01:34:09;94766.97;;;7.09;93.06
34185;BME280;20454;48.100;11.776;2023-04-25T01:36:35;94778.84;;;7.09;93.25
34185;BME280;20454;48.100;11.776;2023-04-25T01:39:01;94776.72;;;7.06;93.85
34185;BME280;20454;48.100;11.776;2023-04-25T01:41:27;94773.97;;;7.06;93.70
34185;BME280;20454;48.100;11.776;2023-04-25T01:43:53;94778.97;;;7.04;93.43
34185;BME280;20454;48.100;11.776;2023-04-25T01:46:18;94777.03;;;7.05;92.59
34185;BME280;20454;48.100;11.776;2023-04-25T01:48:44;94781.72;;;7.04;92.66
34185;BME280;20454;48.100;11.776;2023-04-25T01:51:10;94776.53;;;7.03;92.62
34185;BME280;20454;48.100;11.776;2023-04-25T01:53:37;94774.91;;;7.02;92.38
34185;BME280;20454;48.100;11.776;2023-04-25T01:56:03;94772.75;;;6.99;92.67
34185;BME280;20454;48.100;11.776;2023-04-25T01:58:29;94771.44;;;6.96;93.25
34185;BME280;20454;48.100;11.776;2023-04-25T04:02:42;94756.28;;;6.85;88.42
34185;BME280;20454;48.100;11.776;2023-04-25T04:05:08;94758.22;;;6.85;89.14
34185;BME280;20454;48.100;11.776;2023-04-25T04:07:34;94749.25;;;6.79;89.91
34185;BME280;20454;48.100;11.776;2023-04-25T04:10:06;94749.38;;;6.74;89.95
34185;BME280;20454;48.100;11.776;2023-04-25T04:12:33;94749.38;;;6.74;90.39
34185;BME280;20454;48.100;11.776;2023-04-25T04:14:58;94746.94;;;6.73;90.24
34185;BME280;20454;48.100;11.776;2023-04-25T04:17:24;94747.63;;;6.78;91.32
34185;BME280;20454;48.100;11.776;2023-04-25T04:19:50;94752.63;;;6.76;91.84
34185;BME280;20454;48.100;11.776;2023-04-25T04:22:16;94753.59;;;6.72;92.39
34185;BME280;20454;48.100;11.776;2023-04-25T04:24:41;94752.97;;;6.75;92.47
34185;BME280;20454;48.100;11.776;2023-04-25T04:27:11;94750.03;;;6.71;92.96
34185;BME280;20454;48.100;11.776;2023-04-25T04:29:38;94744.16;;;6.73;93.35
34185;BME280;20454;48.100;11.776;2023-04-25T04:32:04;94740.59;;;6.72;93.94
34185;BME280;20454;48.100;11.776;2023-04-25T04:34:30;94734.25;;;6.72;94.14
34185;BME280;20454;48.100;11.776;2023-04-25T04:36:56;94738.31;;;6.74;93.33
34185;BME280;20454;48.100;11.776;2023-04-25T04:39:22;94734.72;;;6.74;93.07
34185;BME280;20454;48.100;11.776;2023-04-25T04:41:48;94733.63;;;6.75;93.05
34185;BME280;20454;48.100;11.776;2023-04-25T04:44:14;94744.03;;;6.78;92.30
34185;BME280;20454;48.100;11.776;2023-04-25T05:35:54;94735.78;;;7.25;91.54
34185;BME280;20454;48.100;11.776;2023-04-25T05:38:19;94726.19;;;7.23;91.51
34185;BME280;20454;48.100;11.776;2023-04-25T05:40:45;94716.25;;;7.22;91.62
34185;BME280;20454;48.100;11.776;2023-04-25T05:43:11;94725.53;;;7.26;93.10
34185;BME280;20454;48.100;11.776;2023-04-25T05:45:37;94725.84;;;7.24;93.09
34185;BME280;20454;48.100;11.776;2023-04-25T05:48:02;94729.13;;;7.26;93.11
34185;BME280;20454;48.100;11.776;2023-04-25T05:50:28;94736.13;;;7.32;93.36
34185;BME280;20454;48.100;11.776;2023-04-25T05:52:54;94735.03;;;7.33;93.50
34185;BME280;20454;48.100;11.776;2023-04-25T05:55:19;94726.91;;;7.37;94.84
34185;BME280;20454;48.100;11.776;2023-04-25T05:57:45;94725.41;;;7.39;94.01
34185;BME280;20454;48.100;11.776;2023-04-25T06:00:12;94727.56;;;7.42;92.72
34185;BME280;20454;48.100;11.776;2023-04-25T06:02:38;94740.72;;;7.37;92.90
34185;BME280;20454;48.100;11.776;2023-04-25T06:05:04;94735.50;;;7.35;93.08
34185;BME280;20454;48.100;11.776;2023-04-25T06:07:29;94736.47;;;7.39;92.66
34185;BME280;20454;48.100;11.776;2023-04-25T06:09:56;94735.72;;;7.47;92.37
34185;BME280;20454;48.100;11.776;2023-04-25T06:12:22;94743.22;;;7.64;91.92
34185;BME280;20454;48.100;11.776;2023-04-25T06:14:47;94752.84;;;7.75;90.67
34185;BME280;20454;48.100;11.776;2023-04-25T06:17:13;94744.56;;;7.83;89.57
34185;BME280;20454;48.100;11.776;2023-04-25T06:19:39;94753.69;;;7.92;89.97
34185;BME280;20454;48.100;11.776;2023-04-25T06:22:04;94743.59;;;8.05;89.29
34185;BME280;20454;48.100;11.776;2023-04-25T06:24:30;94739.06;;;8.26;87.67
34185;BME280;20454;48.100;11.776;2023-04-25T06:26:56;94747.22;;;8.48;87.01
34185;BME280;20454;48.100;11.776;2023-04-25T06:29:21;94744.09;;;8.58;84.19
34185;BME280;20454;48.100;11.776;2023-04-25T06:31:47;94752.44;;;8.49;83.59
34185;BME280;20454;48.100;11.776;2023-04-25T06:34:13;94750.00;;;8.39;80.87
34185;BME280;20454;48.100;11.776;2023-04-25T06:36:38;94747.22;;;8.31;83.61
34185;BME280;20454;48.100;11.776;2023-04-25T06:39:04;94749.34;;;8.25;84.65
34185;BME280;20454;48.100;11.776;2023-04-25T06:41:30;94746.22;;;8.18;84.63
34185;BME280;20454;48.100;11.776;2023-04-25T06:43:55;94735.13;;;8.10;84.99
34185;BME280;20454;48.100;11.776;2023-04-25T06:46:21;94739.56;;;8.02;84.99
34185;BME280;20454;48.100;11.776;2023-04-25T06:48:47;94738.41;;;7.95;86.78
34185;BME280;20454;48.100;11.776;2023-04-25T06:51:12;94736.59;;;7.90;86.99
34185;BME280;20454;48.100;11.776;2023-04-25T06:53:41;94740.84;;;7.96;88.03
34185;BME280;20454;48.100;11.776;2023-04-25T06:56:07;94743.09;;;7.94;88.69
34185;BME280;20454;48.100;11.776;2023-04-25T06:58:32;94741.16;;;7.95;88.74
34185;BME280;20454;48.100;11.776;2023-04-25T08:49:55;94718.44;;;12.76;58.33
34185;BME280;20454;48.100;11.776;2023-04-25T08:52:22;94718.00;;;12.74;57.42
34185;BME280;20454;48.100;11.776;2023-04-25T08:54:49;94716.69;;;12.83;57.20
34185;BME280;20454;48.100;11.776;2023-04-25T08:57:15;94722.91;;;12.92;58.28
34185;BME280;20454;48.100;11.776;2023-04-25T08:59:41;94711.53;;;12.97;59.06
34185;BME280;20454;48.100;11.776;2023-04-25T09:02:11;94715.59;;;13.00;57.66
34185;BME280;20454;48.100;11.776;2023-04-25T09:04:43;94712.06;;;13.03;58.82
34185;BME280;20454;48.100;11.776;2023-04-25T09:07:09;94715.94;;;12.98;56.76
34185;BME280;20454;48.100;11.776;2023-04-25T09:09:35;94715.59;;;13.00;56.67
34185;BME280;20454;48.100;11.776;2023-04-25T09:12:01;94707.94;;;13.12;56.80
34185;BME280;20454;48.100;11.776;2023-04-25T09:14:27;94703.13;;;13.40;55.17
34185;BME280;20454;48.100;11.776;2023-04-25T09:21:54;94703.44;;;14.01;51.88
34185;BME280;20454;48.100;11.776;2023-04-25T09:24:44;94708.47;;;14.26;52.61
34185;BME280;20454;48.100;11.776;2023-04-25T09:27:13;94716.25;;;14.33;53.95
34185;BME280;20454;48.100;11.776;2023-04-25T09:29:43;94715.22;;;14.41;50.92
34185;BME280;20454;48.100;11.776;2023-04-25T09:32:22;94718.06;;;14.60;47.44
34185;BME280;20454;48.100;11.776;2023-04-25T09:34:57;94718.41;;;14.24;48.64
34185;BME280;20454;48.100;11.776;2023-04-25T09:37:27;94709.78;;;14.48;50.67
34185;BME280;20454;48.100;11.776;2023-04-25T09:39:57;94713.81;;;14.66;48.22
34185;BME280;20454;48.100;11.776;2023-04-25T09:42:31;94712.09;;;14.80;49.30
34185;BME280;20454;48.100;11.776;2023-04-25T09:44:58;94708.50;;;14.80;47.19
34185;BME280;20454;48.100;11.776;2023-04-25T09:47:25;94716.88;;;14.61;48.20
34185;BME280;20454;48.100;11.776;2023-04-25T09:49:53;94714.56;;;14.47;49.13
34185;BME280;20454;48.100;11.776;2023-04-25T09:52:20;94716.09;;;14.26;50.55
34185;BME280;20454;48.100;11.776;2023-04-25T09:54:47;94721.94;;;14.05;50.77
34185;BME280;20454;48.100;11.776;2023-04-25T09:57:17;94714.13;;;13.80;51.21
34185;BME280;20454;48.100;11.776;2023-04-25T10:00:01;94716.03;;;13.60;51.80
34185;BME280;20454;48.100;11.776;2023-04-25T10:02:30;94716.28;;;13.40;50.40
34185;BME280;20454;48.100;11.776;2023-04-25T10:04:57;94722.47;;;13.18;51.26
34185;BME280;20454;48.100;11.776;2023-04-25T10:07:26;94717.00;;;13.37;54.05
34185;BME280;20454;48.100;11.776;2023-04-25T10:10:03;94713.53;;;14.05;51.21
34185;BME280;20454;48.100;11.776;2023-04-25T10:12:30;94705.63;;;14.76;52.03
34185;BME280;20454;48.100;11.776;2023-04-25T10:14:59;94705.00;;;15.65;48.60
34185;BME280;20454;48.100;11.776;2023-04-25T10:17:28;94701.44;;;16.13;43.90
34185;BME280;20454;48.100;11.776;2023-04-25T10:19:54;94692.06;;;16.06;42.87
34185;BME280;20454;48.100;11.776;2023-04-25T10:22:26;94697.03;;;15.67;43.19
34185;BME280;20454;48.100;11.776;2023-04-25T10:24:54;94701.97;;;15.74;44.33
34185;BME280;20454;48.100;11.776;2023-04-25T10:27:21;94691.03;;;16.40;45.42
34185;BME280;20454;48.100;11.776;2023-04-25T10:30:09;94691.34;;;16.90;41.60
34185;BME280;20454;48.100;11.776;2023-04-25T10:32:36;94690.47;;;16.86;40.75
34185;BME280;20454;48.100;11.776;2023-04-25T10:35:27;94696.97;;;16.61;41.17
34185;BME280;20454;48.100;11.776;2023-04-25T10:38:09;94689.59;;;16.27;42.81
34185;BME280;20454;48.100;11.776;2023-04-25T10:40:36;94684.88;;;15.82;42.42
34185;BME280;20454;48.100;11.776;2023-04-25T10:45:56;94681.16;;;15.75;42.53
34185;BME280;20454;48.100;11.776;2023-04-25T10:48:26;94686.50;;;15.61;42.34
34185;BME280;20454;48.100;11.776;2023-04-25T10:51:11;94677.81;;;15.92;42.66
34185;BME280;20454;48.100;11.776;2023-04-25T10:53:37;94688.13;;;15.84;41.02
34185;BME280;20454;48.100;11.776;2023-04-25T10:56:16;94691.25;;;15.79;39.50
34185;BME280;20454;48.100;11.776;2023-04-25T10:58:45;94689.56;;;15.97;41.32
34185;BME280;20454;48.100;11.776;2023-04-25T11:01:21;94701.38;;;15.65;41.18
34185;BME280;20454;48.100;11.776;2023-04-25T11:03:56;94707.22;;;14.96;43.18
34185;BME280;20454;48.100;11.776;2023-04-25T11:06:28;94724.31;;;13.88;51.79
34185;BME280;20454;48.100;11.776;2023-04-25T11:08:55;94747.63;;;12.78;59.92
34185;BME280;20454;48.100;11.776;2023-04-25T11:11:20;94765.22;;;12.03;63.93
34185;BME280;20454;48.100;11.776;2023-04-25T11:13:49;94785.28;;;11.28;64.86
34185;BME280;20454;48.100;11.776;2023-04-25T11:16:16;94787.25;;;10.42;65.11
34185;BME280;20454;48.100;11.776;2023-04-25T11:18:42;94784.25;;;9.98;68.25
34185;BME280;20454;48.100;11.776;2023-04-25T11:21:08;94785.63;;;9.83;72.97
34185;BME280;20454;48.100;11.776;2023-04-25T11:23:34;94782.84;;;9.83;78.99
34185;BME280;20454;48.100;11.776;2023-04-25T11:26:00;94785.88;;;9.99;78.90
34185;BME280;20454;48.100;11.776;2023-04-25T11:28:28;94795.91;;;10.20;82.16
34185;BME280;20454;48.100;11.776;2023-04-25T11:30:54;94802.59;;;10.48;82.93
34185;BME280;20454;48.100;11.776;2023-04-25T11:33:24;94802.56;;;10.69;79.60
34185;BME280;20454;48.100;11.776;2023-04-25T11:35:54;94791.69;;;10.96;78.83
34185;BME280;20454;48.100;11.776;2023-04-25T11:38:22;94813.13;;;11.16;79.62
34185;BME280;20454;48.100;11.776;2023-04-25T11:40:54;94812.94;;;11.33;77.99
34185;BME280;20454;48.100;11.776;2023-04-25T11:43:23;94806.31;;;11.38;75.64
34185;BME280;20454;48.100;11.776;2023-04-25T11:45:49;94821.34;;;11.25;71.23
34185;BME280;20454;48.100;11.776;2023-04-25T11:48:16;94829.13;;;10.99;72.91
34185;BME280;20454;48.100;11.776;2023-04-25T11:50:42;94839.97;;;10.80;76.76
34185;BME280;20454;48.100;11.776;2023-04-25T11:53:08;94853.09;;;10.50;76.17
34185;BME280;20454;48.100;11.776;2023-04-25T11:55:34;94847.31;;;9.97;78.88
34185;BME280;20454;48.100;11.776;2023-04-25T11:58:00;94860.34;;;9.76;82.29
34185;BME280;20454;48.100;11.776;2023-04-25T12:00:26;94860.88;;;9.61;83.25
34185;BME280;20454;48.100;11.776;2023-04-25T12:02:53;94852.94;;;9.43;83.98
34185;BME280;20454;48.100;11.776;2023-04-25T12:05:20;94861.34;;;9.63;85.00
34185;BME280;20454;48.100;11.776;2023-04-25T12:07:46;94857.09;;;9.74;85.25
34185;BME280;20454;48.100;11.776;2023-04-25T12:10:14;94852.88;;;10.06;84.89
34185;BME280;20454;48.100;11.776;2023-04-25T12:12:47;94858.13;;;9.99;80.38
34185;BME280;20454;48.100;11.776;2023-04-25T12:15:14;94859.69;;;9.79;80.16
34185;BME280;20454;48.100;11.776;2023-04-25T12:17:42;94848.22;;;9.81;80.71
34185;BME280;20454;48.100;11.776;2023-04-25T12:20:09;94861.22;;;10.06;79.82
34185;BME280;20454;48.100;11.776;2023-04-25T12:22:35;94862.31;;;9.76;78.76
34185;BME280;20454;48.100;11.776;2023-04-25T12:25:02;94856.31;;;9.65;80.32
34185;BME280;20454;48.100;11.776;2023-04-25T12:27:30;94868.25;;;9.57;79.44
34185;BME280;20454;48.100;11.776;2023-04-25T12:29:57;94874.53;;;9.21;79.91
34185;BME280;20454;48.100;11.776;2023-04-25T12:32:23;94861.19;;;9.14;81.33
34185;BME280;20454;48.100;11.776;2023-04-25T12:34:49;94857.56;;;9.31;82.60
34185;BME280;20454;48.100;11.776;2023-04-25T12:37:15;94866.34;;;9.41;82.93
34185;BME280;20454;48.100;11.776;2023-04-25T12:39:41;94869.06;;;9.49;83.64
34185;BME280;20454;48.100;11.776;2023-04-25T12:42:06;94863.03;;;9.56;84.53
34185;BME280;20454;48.100;11.776;2023-04-25T12:44:37;94865.25;;;9.71;83.35
34185;BME280;20454;48.100;11.776;2023-04-25T12:47:03;94866.53;;;9.82;84.63
34185;BME280;20454;48.100;11.776;2023-04-25T12:49:29;94861.72;;;9.99;83.57
34185;BME280;20454;48.100;11.776;2023-04-25T12:51:55;94864.41;;;10.25;82.74
34185;BME280;20454;48.100;11.776;2023-04-25T12:54:20;94868.34;;;10.44;82.74
34185;BME280;20454;48.100;11.776;2023-04-25T12:56:46;94864.19;;;10.59;82.53
34185;BME280;20454;48.100;11.776;2023-04-25T12:59:12;94873.06;;;10.73;80.96
34185;BME280;20454;48.100;11.776;2023-04-25T13:01:38;94865.28;;;10.87;77.95
34185;BME280;20454;48.100;11.776;2023-04-25T13:04:04;94866.63;;;11.01;75.18
34185;BME280;20454;48.100;11.776;2023-04-25T13:06:31;94867.69;;;11.09;75.92
34185;BME280;20454;48.100;11.776;2023-04-25T13:08:57;94867.63;;;11.17;73.84
34185;BME280;20454;48.100;11.776;2023-04-25T13:11:22;94875.44;;;11.24;75.82
34185;BME280;20454;48.100;11.776;2023-04-25T13:13:48;94881.25;;;11.31;77.25
34185;BME280;20454;48.100;11.776;2023-04-25T13:16:14;94881.13;;;11.27;72.89
34185;BME280;20454;48.100;11.776;2023-04-25T13:18:40;94884.94;;;11.02;73.19
34185;BME280;20454;48.100;11.776;2023-04-25T13:21:05;94887.53;;;10.87;74.38
34185;BME280;20454;48.100;11.776;2023-04-25T13:23:31;94891.19;;;10.79;73.94
34185;BME280;20454;48.100;11.776;2023-04-25T13:25:57;94893.66;;;10.51;74.19
34185;BME280;20454;48.100;11.776;2023-04-25T13:28:24;94906.88;;;10.25;77.61
34185;BME280;20454;48.100;11.776;2023-04-25T13:30:50;94901.03;;;10.18;80.64
34185;BME280;20454;48.100;11.776;2023-04-25T13:33:17;94898.25;;;10.18;78.90
34185;BME280;20454;48.100;11.776;2023-04-25T13:35:43;94898.56;;;10.25;79.42
34185;BME280;20454;48.100;11.776;2023-04-25T13:38:08;94901.47;;;10.29;78.50
34185;BME280;20454;48.100;11.776;2023-04-25T13:40:34;94907.53;;;10.31;79.64
34185;BME280;20454;48.100;11.776;2023-04-25T13:43:01;94914.91;;;10.27;77.89
34185;BME280;20454;48.100;11.776;2023-04-25T13:45:27;94904.66;;;10.19;77.94
34185;BME280;20454;48.100;11.776;2023-04-25T13:47:52;94909.53;;;10.22;74.95
34185;BME280;20454;48.100;11.776;2023-04-25T13:50:18;94922.81;;;10.16;77.96
34185;BME280;20454;48.100;11.776;2023-04-25T13:52:43;94911.06;;;10.11;77.37
34185;BME280;20454;48.100;11.776;2023-04-25T13:55:10;94911.97;;;10.23;79.12
34185;BME280;20454;48.100;11.776;2023-04-25T13:57:36;94918.66;;;10.31;80.37
34185;BME280;20454;48.100;11.776;2023-04-25T14:00:03;94921.47;;;10.51;81.08
34185;BME280;20454;48.100;11.776;2023-04-25T14:02:37;94927.75;;;10.69;81.16
34185;BME280;20454;48.100;11.776;2023-04-25T14:05:04;94930.75;;;10.84;78.92
34185;BME280;20454;48.100;11.776;2023-04-25T14:07:29;94922.69;;;10.91;80.57
34185;BME280;20454;48.100;11.776;2023-04-25T14:09:56;94928.91;;;10.88;81.00
34185;BME280;20454;48.100;11.776;2023-04-25T16:01:12;95021.59;;;9.80;83.13
34185;BME280;20454;48.100;11.776;2023-04-25T16:03:38;95013.31;;;9.71;85.44
34185;BME280;20454;48.100;11.776;2023-04-25T16:06:04;95019.81;;;9.75;84.45
34185;BME280;20454;48.100;11.776;2023-04-25T16:08:30;95025.03;;;9.77;82.04
34185;BME280;20454;48.100;11.776;2023-04-25T16:10:59;95029.44;;;9.86;83.61
34185;BME280;20454;48.100;11.776;2023-04-25T16:13:30;95020.75;;;9.88;81.06
34185;BME280;20454;48.100;11.776;2023-04-25T16:15:58;95017.97;;;9.88;78.71
34185;BME280;20454;48.100;11.776;2023-04-25T16:18:23;95017.19;;;9.79;80.08
34185;BME280;20454;48.100;11.776;2023-04-25T16:20:49;95015.72;;;9.73;79.74
34185;BME280;20454;48.100;11.776;2023-04-25T16:23:15;95023.56;;;9.62;81.64
34185;BME280;20454;48.100;11.776;2023-04-25T16:25:40;95035.34;;;9.51;81.27
34185;BME280;20454;48.100;11.776;2023-04-25T16:28:07;95040.91;;;9.34;82.59
34185;BME280;20454;48.100;11.776;2023-04-25T16:30:33;95034.50;;;9.25;84.00
34185;BME280;20454;48.100;11.776;2023-04-25T16:32:58;95038.59;;;9.19;86.27
34185;BME280;20454;48.100;11.776;2023-04-25T16:35:24;95039.25;;;9.16;87.64
34185;BME280;20454;48.100;11.776;2023-04-25T16:37:50;95036.78;;;9.15;87.84
34185;BME280;20454;48.100;11.776;2023-04-25T16:40:16;95043.31;;;9.10;89.79
34185;BME280;20454;48.100;11.776;2023-04-25T16:42:41;95037.59;;;9.07;88.57
34185;BME280;20454;48.100;11.776;2023-04-25T16:45:07;95039.72;;;9.01;87.22
34185;BME280;20454;48.100;11.776;2023-04-25T16:47:33;95044.78;;;8.99;88.86
34185;BME280;20454;48.100;11.776;2023-04-25T16:49:59;95036.59;;;8.94;88.63
34185;BME280;20454;48.100;11.776;2023-04-25T16:52:25;95047.56;;;8.99;88.06
34185;BME280;20454;48.100;11.776;2023-04-25T16:54:51;95058.97;;;8.98;88.45
34185;BME280;20454;48.100;11.776;2023-04-25T16:57:17;95043.94;;;8.90;88.45
34185;BME280;20454;48.100;11.776;2023-04-25T16:59:42;95057.66;;;8.95;89.70
34185;BME280;20454;48.100;11.776;2023-04-25T17:02:11;95066.28;;;8.85;89.29
34185;BME280;20454;48.100;11.776;2023-04-25T17:04:37;95057.78;;;8.82;90.19
34185;BME280;20454;48.100;11.776;2023-04-25T17:07:02;95066.59;;;8.84;90.43
34185;BME280;20454;48.100;11.776;2023-04-25T17:09:28;95061.19;;;8.79;89.71
34185;BME280;20454;48.100;11.776;2023-04-25T17:11:54;95073.59;;;8.81;90.87
34185;BME280;20454;48.100;11.776;2023-04-25T17:14:19;95062.78;;;8.63;90.02
34185;BME280;20454;48.100;11.776;2023-04-25T17:16:45;95069.00;;;8.68;91.11
34185;BME280;20454;48.100;11.776;2023-04-25T17:19:11;95074.50;;;8.60;90.96
34185;BME280;20454;48.100;11.776;2023-04-25T17:21:36;95081.13;;;8.50;90.56
34185;BME280;20454;48.100;11.776;2023-04-25T17:24:02;95082.63;;;8.48;93.15
34185;BME280;20454;48.100;11.776;2023-04-25T17:26:30;95089.25;;;8.38;92.75
34185;BME280;20454;48.100;11.776;2023-04-25T17:28:56;95100.47;;;8.33;92.77
34185;BME280;20454;48.100;11.776;2023-04-25T17:31:22;95091.13;;;8.29;93.46
34185;BME280;20454;48.100;11.776;2023-04-25T17:33:48;95091.59;;;8.23;94.01
34185;BME280;20454;48.100;11.776;2023-04-25T17:36:14;95104.97;;;8.21;94.15
34185;BME280;20454;48.100;11.776;2023-04-25T17:38:39;95107.34;;;8.14;93.86
34185;BME280;20454;48.100;11.776;2023-04-25T17:41:05;95108.78;;;8.11;94.39
34185;BME280;20454;48.100;11.776;2023-04-25T17:43:31;95115.59;;;8.05;94.98
34185;BME280;20454;48.100;11.776;2023-04-25T17:45:57;95107.41;;;8.00;95.49
34185;BME280;20454;48.100;11.776;2023-04-25T17:48:24;95110.81;;;7.97;95.34
34185;BME280;20454;48.100;11.776;2023-04-25T19:51:02;95255.16;;;6.29;100.00
34185;BME280;20454;48.100;11.776;2023-04-25T19:53:27;95256.81;;;6.30;100.00
34185;BME280;20454;48.100;11.776;2023-04-25T19:55:53;95256.28;;;6.28;100.00
34185;BME280;20454;48.100;11.776;2023-04-25T19:58:19;95252.25;;;6.20;100.00
34185;BME280;20454;48.100;11.776;2023-04-25T20:00:45;95269.59;;;6.26;100.00
34185;BME280;20454;48.100;11.776;2023-04-25T20:03:11;95271.22;;;6.27;100.00
34185;BME280;20454;48.100;11.776;2023-04-25T20:05:37;95266.28;;;6.24;100.00
34185;BME280;20454;48.100;11.776;2023-04-25T20:08:02;95269.06;;;6.24;100.00
34185;BME280;20454;48.100;11.776;2023-04-25T20:10:29;95263.03;;;6.22;100.00
34185;BME280;20454;48.100;11.776;2023-04-25T20:12:54;95273.78;;;6.23;100.00
34185;BME280;20454;48.100;11.776;2023-04-25T20:15:20;95263.41;;;6.15;100.00
34185;BME280;20454;48.100;11.776;2023-04-25T20:17:46;95266.06;;;6.20;100.00
34185;BME280;20454;48.100;11.776;2023-04-25T20:20:12;95265.56;;;6.18;100.00
34185;BME280;20454;48.100;11.776;2023-04-25T20:22:37;95263.31;;;6.20;100.00
34185;BME280;20454;48.100;11.776;2023-04-25T20:25:06;95260.03;;;6.18;100.00
34185;BME280;20454;48.100;11.776;2023-04-25T20:27:32;95263.09;;;6.17;100.00
34185;BME280;20454;48.100;11.776;2023-04-25T20:29:58;95269.44;;;6.17;100.00
34185;BME280;20454;48.100;11.776;2023-04-25T20:32:28;95257.56;;;6.17;100.00
34185;BME280;20454;48.100;11.776;2023-04-25T20:34:56;95255.13;;;6.15;100.00
34185;BME280;20454;48.100;11.776;2023-04-25T20:37:22;95262.06;;;6.13;100.00
34185;BME280;20454;48.100;11.776;2023-04-25T20:39:48;95261.75;;;6.14;100.00
34185;BME280;20454;48.100;11.776;2023-04-25T20:42:13;95257.56;;;6.17;100.00
34185;BME280;20454;48.100;11.776;2023-04-25T20:44:39;95262.88;;;6.13;100.00
34185;BME280;20454;48.100;11.776;2023-04-25T20:47:05;95255.00;;;6.07;100.00
34185;BME280;20454;48.100;11.776;2023-04-25T20:49:31;95263.56;;;6.05;100.00
34185;BME280;20454;48.100;11.776;2023-04-25T20:51:57;95269.38;;;6.04;100.00
34185;BME280;20454;48.100;11.776;2023-04-25T20:54:23;95266.59;;;6.04;100.00
34185;BME280;20454;48.100;11.776;2023-04-25T20:56:51;95261.69;;;6.01;100.00
34185;BME280;20454;48.100;11.776;2023-04-25T20:59:16;95269.25;;;5.95;100.00
34185;BME280;20454;48.100;11.776;2023-04-25T21:01:42;95268.94;;;5.97;100.00
34185;BME280;20454;48.100;11.776;2023-04-25T21:04:08;95275.88;;;5.94;100.00
34185;BME280;20454;48.100;11.776;2023-04-25T21:06:34;95285.59;;;5.92;100.00
34185;BME280;20454;48.100;11.776;2023-04-25T21:09:00;95272.88;;;5.91;100.00
34185;BME280;20454;48.100;11.776;2023-04-25T21:11:26;95275.97;;;5.89;100.00
34185;BME280;20454;48.100;11.776;2023-04-25T21:13:51;95280.06;;;5.92;100.00
34185;BME280;20454;48.100;11.776;2023-04-25T21:16:17;95278.13;;;5.92;100.00
34185;BME280;20454;48.100;11.776;2023-04-25T21:18:43;95276.19;;;5.93;100.00
34185;BME280;20454;48.100;11.776;2023-04-25T21:21:09;95288.34;;;5.92;100.00
34185;BME280;20454;48.100;11.776;2023-04-25T21:23:34;95289.16;;;5.92;100.00
34185;BME280;20454;48.100;11.776;2023-04-25T21:26:00;95275.28;;;5.97;100.00
34185;BME280;20454;48.100;11.776;2023-04-25T21:28:26;95281.09;;;5.96;100.00
34185;BME280;20454;48.100;11.776;2023-04-25T21:30:52;95279.97;;;5.97;100.00